KDAA/DAA METAR and TAF weather

Enter ICAO airport designator
Station Type Date Time Source
KDAA METAR 2019/12/06 03:56 UTC NOAA

KDAA 060356Z AUTO 00000KT 10SM CLR 00/M05 A3017 RMK AO2 SLP220 T10021048 $


Station Type Date Time Source
KDAA Decoded METAR 2019/12/06 03:56 UTC NOAA

Fort Belvoir, VA, United States (KDAA) 38-43N 077-11W
Dec 05, 2019 - 10:56 PM EST / 2019.12.06 0356 UTC
Wind: Calm:0
Visibility: 10 mile(s):0
Sky conditions: clear
Temperature: 31.6 F (-0.2 C)
Dew Point: 23.4 F (-4.8 C)
Relative Humidity: 71%
Pressure (altimeter): 30.17 in. Hg (1021 hPa)
ob: KDAA 060356Z AUTO 00000KT 10SM CLR 00/M05 A3017 RMK AO2 SLP220 T10021048
cycle: 4

Station Type Date Time Source
KDAA TAF 2019/12/06 02:09 UTC NOAA

TAF TAF KDAA 060200Z 0602/0708 19006KT 9999 SCT220 QNH3012INS
BECMG 0617/0618 21010G15KT 9999 SCT055 QNH3006INS
BECMG 0700/0701 29006KT 9999 SCT025 QNH3012INS TX07/0618Z TN00/0612Z LAST NO
AMDS AFT 0602 NEXT 0610

Example: see airport list